createdAt,value
2016-05-18T00:00:00.835Z,11.73
2016-05-18T00:00:10.853Z,11.81
2016-05-18T00:00:20.853Z,11.76
2016-05-18T00:00:30.869Z,11.83
2016-05-18T00:00:40.869Z,11.86
2016-05-18T00:00:50.869Z,11.78
2016-05-18T00:01:00.869Z,11.81
2016-05-18T00:01:10.871Z,11.77
2016-05-18T00:01:20.886Z,11.76
2016-05-18T00:01:30.886Z,11.76
2016-05-18T00:01:40.886Z,11.77
2016-05-18T00:01:50.902Z,11.78
2016-05-18T00:02:00.902Z,11.74
2016-05-18T00:02:10.906Z,11.83
2016-05-18T00:02:20.906Z,11.73
2016-05-18T00:02:30.922Z,11.77
2016-05-18T00:02:40.922Z,11.78
2016-05-18T00:02:50.922Z,11.78
2016-05-18T00:03:00.922Z,11.78
2016-05-18T00:03:10.939Z,11.76
2016-05-18T00:03:20.939Z,11.81
2016-05-18T00:03:30.939Z,11.77
2016-05-18T00:03:40.939Z,11.83
2016-05-18T00:03:50.955Z,11.74
2016-05-18T00:04:00.971Z,11.83
2016-05-18T00:04:10.958Z,11.78
2016-05-18T00:04:20.974Z,11.68
2016-05-18T00:04:30.974Z,11.76
2016-05-18T00:04:40.974Z,11.76
2016-05-18T00:04:50.989Z,11.77
2016-05-18T00:05:00.989Z,11.76
2016-05-18T00:05:10.992Z,11.68
2016-05-18T00:05:20.992Z,11.76
2016-05-18T00:05:31.008Z,11.74
2016-05-18T00:05:41.008Z,11.74
2016-05-18T00:05:51.008Z,11.71
2016-05-18T00:06:01.008Z,11.73
2016-05-18T00:06:11.025Z,11.67
2016-05-18T00:06:21.025Z,11.68
2016-05-18T00:06:31.025Z,11.68
2016-05-18T00:06:41.041Z,11.68
2016-05-18T00:06:51.041Z,11.68
2016-05-18T00:07:01.041Z,11.68
2016-05-18T00:07:11.060Z,11.65
2016-05-18T00:07:21.060Z,11.68
2016-05-18T00:07:31.060Z,11.63
2016-05-18T00:07:41.060Z,11.62
2016-05-18T00:07:51.122Z,11.65
2016-05-18T00:08:01.075Z,11.65
2016-05-18T00:08:11.077Z,11.68
2016-05-18T00:08:21.077Z,11.68
2016-05-18T00:08:31.093Z,11.62
2016-05-18T00:08:41.093Z,11.6
2016-05-18T00:08:51.109Z,11.55
2016-05-18T00:09:01.109Z,11.63
2016-05-18T00:09:11.112Z,11.59
2016-05-18T00:09:21.112Z,11.62
2016-05-18T00:09:31.112Z,11.62
2016-05-18T00:09:41.127Z,11.56
2016-05-18T00:09:51.127Z,11.65
2016-05-18T00:10:01.127Z,11.63
2016-05-18T00:10:11.130Z,11.63
2016-05-18T00:10:21.146Z,11.49
2016-05-18T00:10:31.146Z,11.59
2016-05-18T00:10:41.146Z,11.58
2016-05-18T00:10:51.161Z,11.56
2016-05-18T00:11:01.161Z,11.59
2016-05-18T00:11:11.164Z,11.56
2016-05-18T00:11:21.164Z,11.51
2016-05-18T00:11:31.180Z,11.58
2016-05-18T00:11:41.180Z,11.55
2016-05-18T00:11:51.180Z,11.49
2016-05-18T00:12:01.196Z,11.53
2016-05-18T00:12:11.198Z,11.52
2016-05-18T00:12:21.198Z,11.55
2016-05-18T00:12:31.198Z,11.52
2016-05-18T00:12:41.213Z,11.53
2016-05-18T00:12:51.213Z,11.51
2016-05-18T00:13:01.213Z,11.52
2016-05-18T00:13:11.216Z,11.53
2016-05-18T00:13:21.232Z,11.48
2016-05-18T00:13:31.232Z,11.55
2016-05-18T00:13:41.232Z,11.48
2016-05-18T00:13:51.232Z,11.45
2016-05-18T00:14:01.248Z,11.52
2016-05-18T00:14:11.251Z,11.53
2016-05-18T00:14:21.251Z,11.56
2016-05-18T00:14:31.266Z,11.51
2016-05-18T00:14:41.266Z,11.44
2016-05-18T00:14:51.266Z,11.52
2016-05-18T00:15:01.266Z,11.53
2016-05-18T00:15:11.284Z,11.55
2016-05-18T00:15:21.284Z,11.53
2016-05-18T00:15:31.284Z,11.51
2016-05-18T00:15:41.299Z,11.51
2016-05-18T00:15:51.299Z,11.55
2016-05-18T00:16:01.299Z,11.44
2016-05-18T00:16:11.302Z,11.4
2016-05-18T00:16:21.318Z,11.58
2016-05-18T00:16:31.318Z,11.51
2016-05-18T00:16:41.318Z,11.44
2016-05-18T00:16:51.334Z,11.43
2016-05-18T00:17:01.334Z,11.44
2016-05-18T00:17:11.337Z,11.49
2016-05-18T00:17:21.337Z,11.45
2016-05-18T00:17:31.352Z,11.44
2016-05-18T00:17:41.352Z,11.4
2016-05-18T00:17:51.352Z,11.44
2016-05-18T00:18:01.352Z,11.41
2016-05-18T00:18:11.371Z,11.43
2016-05-18T00:18:21.371Z,11.45
2016-05-18T00:18:31.371Z,11.48
2016-05-18T00:18:41.387Z,11.49
2016-05-18T00:18:51.387Z,11.45
2016-05-18T00:19:01.387Z,11.44
2016-05-18T00:19:11.389Z,11.37
2016-05-18T00:19:21.404Z,11.4
2016-05-18T00:19:31.404Z,11.43
2016-05-18T00:19:41.404Z,11.45
2016-05-18T00:19:51.420Z,11.4
2016-05-18T00:20:01.420Z,11.4
2016-05-18T00:20:11.423Z,11.45
2016-05-18T00:20:21.423Z,11.41
2016-05-18T00:20:31.438Z,11.44
2016-05-18T00:20:41.438Z,11.4
2016-05-18T00:20:51.438Z,11.44
2016-05-18T00:21:01.438Z,11.48
2016-05-18T00:21:11.456Z,11.41
2016-05-18T00:21:21.456Z,11.44
2016-05-18T00:21:31.456Z,11.43
2016-05-18T00:21:41.472Z,11.44
2016-05-18T00:21:51.472Z,11.44
2016-05-18T00:22:01.472Z,11.4
2016-05-18T00:22:11.475Z,11.4
2016-05-18T00:22:21.568Z,11.35
2016-05-18T00:22:31.490Z,11.35
2016-05-18T00:22:41.490Z,11.33
2016-05-18T00:22:51.787Z,11.38
2016-05-18T00:23:01.537Z,11.4
2016-05-18T00:23:11.509Z,11.37
2016-05-18T00:23:21.509Z,11.33
2016-05-18T00:23:31.525Z,11.31
2016-05-18T00:23:41.525Z,11.27
2016-05-18T00:23:51.525Z,11.34
2016-05-18T00:24:01.540Z,11.3
2016-05-18T00:24:11.527Z,11.35
2016-05-18T00:24:21.542Z,11.33
2016-05-18T00:24:31.542Z,11.26
2016-05-18T00:24:41.558Z,11.27
2016-05-18T00:24:51.558Z,11.23
2016-05-18T00:25:01.558Z,11.19
2016-05-18T00:25:11.562Z,11.3
2016-05-18T00:25:21.577Z,11.26
2016-05-18T00:25:31.577Z,11.2
2016-05-18T00:25:41.577Z,11.3
2016-05-18T00:25:51.577Z,11.25
2016-05-18T00:26:01.593Z,11.27
2016-05-18T00:26:11.595Z,11.3
2016-05-18T00:26:21.595Z,11.3
2016-05-18T00:26:31.611Z,11.19
2016-05-18T00:26:41.611Z,11.3
2016-05-18T00:26:51.611Z,11.26
2016-05-18T00:27:01.626Z,11.27
2016-05-18T00:27:11.628Z,11.3
2016-05-18T00:27:21.628Z,11.27
2016-05-18T00:27:31.628Z,11.25
2016-05-18T00:27:41.644Z,11.25
2016-05-18T00:27:51.644Z,11.25
2016-05-18T00:28:01.644Z,11.34
2016-05-18T00:28:11.647Z,11.26
2016-05-18T00:28:21.663Z,11.31
2016-05-18T00:28:31.663Z,11.26
2016-05-18T00:28:41.678Z,11.27
2016-05-18T00:28:51.678Z,11.25
2016-05-18T00:29:01.678Z,11.26
2016-05-18T00:29:11.681Z,11.26
2016-05-18T00:29:21.681Z,11.25
2016-05-18T00:29:31.697Z,11.25
2016-05-18T00:29:41.697Z,11.25
2016-05-18T00:29:51.697Z,11.3
2016-05-18T00:30:01.697Z,11.33
2016-05-18T00:30:11.715Z,11.25
2016-05-18T00:30:21.715Z,11.33
2016-05-18T00:30:31.715Z,11.27
2016-05-18T00:30:41.731Z,11.26
2016-05-18T00:30:51.731Z,11.27
2016-05-18T00:31:01.731Z,11.22
2016-05-18T00:31:11.733Z,11.23
2016-05-18T00:31:21.749Z,11.26
2016-05-18T00:31:31.749Z,11.27
2016-05-18T00:31:41.749Z,11.2
2016-05-18T00:31:51.749Z,11.22
2016-05-18T00:32:01.764Z,11.23
2016-05-18T00:32:11.768Z,11.27
2016-05-18T00:32:21.768Z,11.25
2016-05-18T00:32:31.768Z,11.23
2016-05-18T00:32:41.784Z,11.27
2016-05-18T00:32:51.784Z,11.25
2016-05-18T00:33:01.784Z,11.22
2016-05-18T00:33:11.802Z,11.25
2016-05-18T00:33:21.802Z,11.23
2016-05-18T00:33:31.802Z,11.26
2016-05-18T00:33:41.817Z,11.25
2016-05-18T00:33:51.817Z,11.33
2016-05-18T00:34:01.817Z,11.25
2016-05-18T00:34:11.819Z,11.25
2016-05-18T00:34:21.835Z,11.22
2016-05-18T00:34:31.835Z,11.3
2016-05-18T00:34:41.835Z,11.27
2016-05-18T00:34:51.835Z,11.31
2016-05-18T00:35:01.850Z,11.27
2016-05-18T00:35:11.853Z,11.3
2016-05-18T00:35:21.853Z,11.33
2016-05-18T00:35:31.869Z,11.37
2016-05-18T00:35:41.869Z,11.22
2016-05-18T00:35:51.869Z,11.25
2016-05-18T00:36:01.869Z,11.25
2016-05-18T00:36:11.888Z,11.34
2016-05-18T00:36:21.888Z,11.35
2016-05-18T00:36:31.888Z,11.35
2016-05-18T00:36:41.888Z,11.4
2016-05-18T00:36:51.903Z,11.3
2016-05-18T00:37:01.903Z,11.43
2016-05-18T00:37:11.905Z,11.35
2016-05-18T00:37:21.921Z,11.37
2016-05-18T00:37:32.077Z,11.41
2016-05-18T00:37:41.921Z,11.41
2016-05-18T00:37:51.921Z,11.43
2016-05-18T00:38:02.171Z,11.41
2016-05-18T00:38:12.362Z,11.44
2016-05-18T00:38:21.941Z,11.4
2016-05-18T00:38:31.956Z,11.44
2016-05-18T00:38:41.956Z,11.51
2016-05-18T00:38:51.972Z,11.45
2016-05-18T00:39:01.972Z,11.48
2016-05-18T00:39:11.974Z,11.48
2016-05-18T00:39:21.974Z,11.43
2016-05-18T00:39:31.989Z,11.44
2016-05-18T00:39:41.974Z,11.48
2016-05-18T00:39:51.989Z,11.49
2016-05-18T00:40:01.989Z,11.49
2016-05-18T00:40:11.991Z,11.49
2016-05-18T00:40:22.007Z,11.49
2016-05-18T00:40:32.007Z,11.43
2016-05-18T00:40:42.007Z,11.4
2016-05-18T00:40:52.007Z,11.48
2016-05-18T00:41:02.023Z,11.49
2016-05-18T00:41:12.027Z,11.51
2016-05-18T00:41:22.027Z,11.53
2016-05-18T00:41:32.027Z,11.45
2016-05-18T00:41:42.042Z,11.53
2016-05-18T00:41:52.042Z,11.53
2016-05-18T00:42:02.058Z,11.41
2016-05-18T00:42:12.060Z,11.55
2016-05-18T00:42:22.060Z,11.52
2016-05-18T00:42:32.060Z,11.52
2016-05-18T00:42:42.076Z,11.55
2016-05-18T00:42:52.076Z,11.52
2016-05-18T00:43:02.076Z,11.51
2016-05-18T00:43:12.078Z,11.55
2016-05-18T00:43:22.093Z,11.55
2016-05-18T00:43:32.093Z,11.52
2016-05-18T00:43:42.109Z,11.52
2016-05-18T00:43:52.093Z,11.56
2016-05-18T00:44:02.109Z,11.53
2016-05-18T00:44:12.113Z,11.52
2016-05-18T00:44:22.113Z,11.52
2016-05-18T00:44:32.128Z,11.53
2016-05-18T00:44:42.128Z,11.51
2016-05-18T00:44:52.144Z,11.53
2016-05-18T00:45:02.144Z,11.55
2016-05-18T00:45:12.146Z,11.58
2016-05-18T00:45:22.146Z,11.58
2016-05-18T00:45:32.146Z,11.53
2016-05-18T00:45:42.162Z,11.52
2016-05-18T00:45:52.162Z,11.58
2016-05-18T00:46:02.162Z,11.53
2016-05-18T00:46:12.165Z,11.52
2016-05-18T00:46:22.180Z,11.45
2016-05-18T00:46:32.180Z,11.52
2016-05-18T00:46:42.180Z,11.55
2016-05-18T00:46:52.180Z,11.55
2016-05-18T00:47:02.196Z,11.56
2016-05-18T00:47:12.214Z,11.62
2016-05-18T00:47:22.198Z,11.56
2016-05-18T00:47:32.214Z,11.55
2016-05-18T00:47:42.214Z,11.48
2016-05-18T00:47:52.214Z,11.55
2016-05-18T00:48:02.214Z,11.55
2016-05-18T00:48:12.232Z,11.55
2016-05-18T00:48:22.232Z,11.63
2016-05-18T00:48:32.232Z,11.62
2016-05-18T00:48:42.248Z,11.59
2016-05-18T00:48:52.248Z,11.59
2016-05-18T00:49:02.263Z,11.59
2016-05-18T00:49:12.250Z,11.59
2016-05-18T00:49:22.265Z,11.65
2016-05-18T00:49:32.265Z,11.6
2016-05-18T00:49:42.265Z,11.63
2016-05-18T00:49:52.265Z,11.59
2016-05-18T00:50:02.281Z,11.68
2016-05-18T00:50:12.285Z,11.62
2016-05-18T00:50:22.285Z,11.58
2016-05-18T00:50:32.285Z,11.62
2016-05-18T00:50:42.301Z,11.56
2016-05-18T00:50:52.301Z,11.7
2016-05-18T00:51:02.301Z,11.7
2016-05-18T00:51:12.318Z,11.68
2016-05-18T00:51:22.318Z,11.59
2016-05-18T00:51:32.318Z,11.67
2016-05-18T00:51:42.318Z,11.6
2016-05-18T00:51:52.334Z,11.59
2016-05-18T00:52:02.334Z,11.65
2016-05-18T00:52:12.337Z,11.65
2016-05-18T00:52:22.353Z,11.62
2016-05-18T00:52:32.353Z,11.59
2016-05-18T00:52:42.353Z,11.62
2016-05-18T00:52:52.353Z,11.68
2016-05-18T00:53:02.368Z,11.59
2016-05-18T00:53:12.371Z,11.63
2016-05-18T00:53:22.371Z,11.74
2016-05-18T00:53:32.371Z,11.65
2016-05-18T00:53:42.387Z,11.65
2016-05-18T00:53:52.387Z,11.65
2016-05-18T00:54:02.387Z,11.67
2016-05-18T00:54:12.389Z,11.67
2016-05-18T00:54:22.404Z,11.68
2016-05-18T00:54:32.404Z,11.77
2016-05-18T00:54:42.420Z,11.7
2016-05-18T00:54:52.420Z,11.7
2016-05-18T00:55:02.420Z,11.8
2016-05-18T00:55:12.423Z,11.67
2016-05-18T00:55:22.423Z,11.81
2016-05-18T00:55:32.439Z,11.74
2016-05-18T00:55:42.439Z,11.81
2016-05-18T00:55:52.439Z,11.8
2016-05-18T00:56:02.454Z,11.73
2016-05-18T00:56:12.456Z,11.77
2016-05-18T00:56:22.456Z,11.71
2016-05-18T00:56:32.472Z,11.77
2016-05-18T00:56:42.472Z,11.81
2016-05-18T00:56:52.472Z,11.7
2016-05-18T00:57:02.472Z,11.78
2016-05-18T00:57:12.491Z,11.83
2016-05-18T00:57:22.491Z,11.77
2016-05-18T00:57:32.491Z,11.76
2016-05-18T00:57:42.491Z,11.83
2016-05-18T00:57:52.506Z,11.73
2016-05-18T00:58:02.506Z,11.77
2016-05-18T00:58:12.509Z,11.78
2016-05-18T00:58:22.509Z,11.77
2016-05-18T00:58:32.525Z,11.88
2016-05-18T00:58:42.525Z,11.83
2016-05-18T00:58:52.525Z,11.8
2016-05-18T00:59:02.540Z,11.95
2016-05-18T00:59:12.543Z,11.86
2016-05-18T00:59:22.543Z,11.91
2016-05-18T00:59:32.559Z,11.81
2016-05-18T00:59:42.559Z,11.89
2016-05-18T00:59:52.559Z,11.78
2016-05-18T01:00:02.559Z,11.86
2016-05-18T01:00:12.577Z,11.8
2016-05-18T01:00:22.577Z,11.8
2016-05-18T01:00:32.577Z,11.83
2016-05-18T01:00:42.577Z,11.86
2016-05-18T01:00:52.592Z,11.91
2016-05-18T01:01:02.592Z,11.95
2016-05-18T01:01:12.595Z,11.86
2016-05-18T01:01:22.611Z,11.8
2016-05-18T01:01:32.611Z,11.83
2016-05-18T01:01:42.611Z,11.97
2016-05-18T01:01:52.611Z,11.96
2016-05-18T01:02:02.627Z,11.96
2016-05-18T01:02:12.630Z,11.88
2016-05-18T01:02:22.630Z,11.86
2016-05-18T01:02:32.630Z,11.89
2016-05-18T01:02:42.645Z,11.95
2016-05-18T01:02:52.645Z,11.93
2016-05-18T01:03:02.645Z,11.88
2016-05-18T01:03:12.663Z,11.89
2016-05-18T01:03:22.663Z,11.85
2016-05-18T01:03:32.663Z,11.86
2016-05-18T01:03:42.663Z,11.91
2016-05-18T01:03:52.678Z,11.85
2016-05-18T01:04:02.678Z,11.83
2016-05-18T01:04:12.681Z,11.86
2016-05-18T01:04:22.697Z,11.89
2016-05-18T01:04:32.697Z,11.88
2016-05-18T01:04:42.697Z,11.86
2016-05-18T01:04:52.697Z,11.93
2016-05-18T01:05:02.713Z,11.91
2016-05-18T01:05:12.716Z,11.89
2016-05-18T01:05:22.716Z,11.86
2016-05-18T01:05:32.716Z,11.93
2016-05-18T01:05:42.731Z,11.91
2016-05-18T01:05:52.731Z,11.89
2016-05-18T01:06:02.731Z,11.91
2016-05-18T01:06:12.734Z,11.89
2016-05-18T01:06:22.750Z,11.97
2016-05-18T01:06:32.750Z,11.88
2016-05-18T01:06:42.750Z,11.89
2016-05-18T01:06:52.766Z,11.91
2016-05-18T01:07:02.766Z,11.93
2016-05-18T01:07:12.768Z,11.95
2016-05-18T01:07:22.768Z,11.95
2016-05-18T01:07:32.783Z,11.96
2016-05-18T01:07:42.783Z,11.95
2016-05-18T01:07:52.783Z,11.89
2016-05-18T01:08:02.783Z,11.95
2016-05-18T01:08:12.833Z,11.91
2016-05-18T01:08:22.802Z,11.96
2016-05-18T01:08:32.802Z,11.99
2016-05-18T01:08:42.817Z,11.96
2016-05-18T01:08:52.817Z,11.97
2016-05-18T01:09:02.817Z,11.93
2016-05-18T01:09:12.820Z,11.89
2016-05-18T01:09:22.836Z,11.89
2016-05-18T01:09:32.836Z,11.95
2016-05-18T01:09:42.836Z,11.95
2016-05-18T01:09:52.852Z,11.93
2016-05-18T01:10:02.852Z,11.97
2016-05-18T01:10:12.869Z,11.85
2016-05-18T01:10:22.869Z,12.03
2016-05-18T01:10:32.869Z,12.02
2016-05-18T01:10:42.869Z,11.97
2016-05-18T01:10:52.869Z,11.93
2016-05-18T01:11:02.885Z,11.91
2016-05-18T01:11:12.888Z,11.99
2016-05-18T01:11:22.888Z,11.99
2016-05-18T01:11:32.888Z,11.97
2016-05-18T01:11:42.904Z,12.02
2016-05-18T01:11:52.904Z,11.95
2016-05-18T01:12:02.904Z,12.02
2016-05-18T01:12:12.906Z,12
2016-05-18T01:12:22.921Z,11.97
2016-05-18T01:12:32.921Z,11.96
2016-05-18T01:12:42.921Z,11.99
2016-05-18T01:12:52.921Z,12.02
2016-05-18T01:13:02.937Z,11.97
2016-05-18T01:13:12.941Z,11.97
2016-05-18T01:13:22.956Z,11.99
2016-05-18T01:13:32.956Z,12
2016-05-18T01:13:42.956Z,11.96
2016-05-18T01:13:52.956Z,12
2016-05-18T01:14:02.972Z,11.93
2016-05-18T01:14:12.974Z,12
2016-05-18T01:14:22.974Z,11.99
2016-05-18T01:14:32.974Z,11.97
2016-05-18T01:14:42.990Z,11.99
2016-05-18T01:14:52.990Z,11.96
2016-05-18T01:15:02.990Z,11.97
2016-05-18T01:15:13.007Z,12
2016-05-18T01:15:23.007Z,12.03
2016-05-18T01:15:33.007Z,11.97
2016-05-18T01:15:43.007Z,12
2016-05-18T01:15:53.007Z,12
2016-05-18T01:16:03.023Z,12
2016-05-18T01:16:13.042Z,11.91
2016-05-18T01:16:23.026Z,11.99
2016-05-18T01:16:33.042Z,12.02
2016-05-18T01:16:43.042Z,12.03
2016-05-18T01:16:53.042Z,12.05
2016-05-18T01:17:03.042Z,12.1
2016-05-18T01:17:13.060Z,12.03
2016-05-18T01:17:23.060Z,11.95
2016-05-18T01:17:33.060Z,11.97
2016-05-18T01:17:43.076Z,11.88
2016-05-18T01:17:53.076Z,11.97
2016-05-18T01:18:03.076Z,12
2016-05-18T01:18:13.079Z,12.08
2016-05-18T01:18:23.094Z,11.99
2016-05-18T01:18:33.094Z,12.02
2016-05-18T01:18:43.094Z,11.99
2016-05-18T01:18:53.094Z,11.96
2016-05-18T01:19:03.110Z,12
2016-05-18T01:19:13.112Z,11.93
2016-05-18T01:19:23.112Z,11.96
2016-05-18T01:19:33.128Z,11.95
2016-05-18T01:19:43.128Z,11.95
2016-05-18T01:19:53.128Z,12.12
2016-05-18T01:20:03.143Z,11.96
2016-05-18T01:20:13.147Z,11.93
2016-05-18T01:20:23.147Z,11.97
2016-05-18T01:20:33.147Z,11.93
2016-05-18T01:20:43.163Z,11.97
2016-05-18T01:20:53.163Z,11.95
2016-05-18T01:21:03.163Z,11.95
2016-05-18T01:21:13.165Z,11.96
2016-05-18T01:21:23.181Z,11.95
2016-05-18T01:21:33.181Z,11.97
2016-05-18T01:21:43.181Z,11.99
2016-05-18T01:21:53.196Z,11.99
2016-05-18T01:22:03.196Z,12
2016-05-18T01:22:13.199Z,12.03
2016-05-18T01:22:23.199Z,11.97
2016-05-18T01:22:33.215Z,12.14
2016-05-18T01:22:43.215Z,11.96
2016-05-18T01:22:53.215Z,12.05
2016-05-18T01:23:03.215Z,12.02
2016-05-18T01:23:13.670Z,12.07
2016-05-18T01:23:23.232Z,12.08
2016-05-18T01:23:33.232Z,12
2016-05-18T01:23:43.248Z,12.03
2016-05-18T01:23:53.248Z,12.03
2016-05-18T01:24:03.248Z,11.96
2016-05-18T01:24:13.250Z,12.03
2016-05-18T01:24:23.266Z,12.03
2016-05-18T01:24:33.266Z,12.07
2016-05-18T01:24:43.266Z,11.97
2016-05-18T01:24:53.266Z,11.97
2016-05-18T01:25:03.281Z,12.05
2016-05-18T01:25:13.285Z,12.05
2016-05-18T01:25:23.285Z,12.03
2016-05-18T01:25:33.301Z,12.08
2016-05-18T01:25:43.301Z,12.08
2016-05-18T01:25:53.301Z,12.03
2016-05-18T01:26:03.301Z,11.99
2016-05-18T01:26:13.319Z,12.1
2016-05-18T01:26:23.319Z,11.97
2016-05-18T01:26:33.319Z,12.08
2016-05-18T01:26:43.319Z,12.07
2016-05-18T01:26:53.334Z,12.1
2016-05-18T01:27:03.334Z,12.1
2016-05-18T01:27:13.337Z,12
2016-05-18T01:27:23.353Z,12.08
2016-05-18T01:27:33.353Z,12.03
2016-05-18T01:27:43.353Z,12.08
2016-05-18T01:27:53.368Z,12.1
2016-05-18T01:28:03.368Z,12.1
2016-05-18T01:28:13.371Z,12.07
2016-05-18T01:28:23.371Z,12.1
2016-05-18T01:28:33.387Z,12
2016-05-18T01:28:43.387Z,12.03
2016-05-18T01:28:53.387Z,12.08
2016-05-18T01:29:03.387Z,12.03
2016-05-18T01:29:13.405Z,12.03
2016-05-18T01:29:23.405Z,12.03
2016-05-18T01:29:33.405Z,12.05
2016-05-18T01:29:43.420Z,12.03
2016-05-18T01:29:53.420Z,12.03
2016-05-18T01:30:03.420Z,12.07
2016-05-18T01:30:13.423Z,12.11
2016-05-18T01:30:23.439Z,12.12
2016-05-18T01:30:33.439Z,12.18
2016-05-18T01:30:43.439Z,12
2016-05-18T01:30:53.439Z,12.07
2016-05-18T01:31:03.455Z,12.1
2016-05-18T01:31:13.457Z,12.05
2016-05-18T01:31:23.457Z,12.07
2016-05-18T01:31:33.472Z,12
2016-05-18T01:31:43.472Z,12.03
2016-05-18T01:31:53.472Z,12.11
2016-05-18T01:32:03.488Z,12.07
2016-05-18T01:32:13.492Z,12.02
2016-05-18T01:32:23.492Z,12.08
2016-05-18T01:32:33.492Z,12
2016-05-18T01:32:43.507Z,12.05
2016-05-18T01:32:53.507Z,12.02
2016-05-18T01:33:03.507Z,12.02
2016-05-18T01:33:13.509Z,12.11
2016-05-18T01:33:23.525Z,12.03
2016-05-18T01:33:33.525Z,12.1
2016-05-18T01:33:43.525Z,12.11
2016-05-18T01:33:53.525Z,12.07
2016-05-18T01:34:03.541Z,12.05
2016-05-18T01:34:13.544Z,12.05
2016-05-18T01:34:23.544Z,12.1
2016-05-18T01:34:33.559Z,12.07
2016-05-18T01:34:43.559Z,12.08
2016-05-18T01:34:53.559Z,12.08
2016-05-18T01:35:03.559Z,12.08
2016-05-18T01:35:13.577Z,12.08
2016-05-18T01:35:23.577Z,12.11
2016-05-18T01:35:33.577Z,12
2016-05-18T01:35:43.593Z,12.11
2016-05-18T01:35:53.593Z,12.12
2016-05-18T01:36:03.593Z,12
2016-05-18T01:36:13.596Z,12.14
2016-05-18T01:36:23.611Z,12.07
2016-05-18T01:36:33.611Z,12.05
2016-05-18T01:36:43.611Z,12.1
2016-05-18T01:36:53.627Z,12.18
2016-05-18T01:37:03.627Z,12.11
2016-05-18T01:37:13.630Z,12.11
2016-05-18T01:37:23.630Z,12.1
2016-05-18T01:37:33.645Z,12.11
2016-05-18T01:37:43.645Z,12.07
2016-05-18T01:37:53.645Z,12.08
2016-05-18T01:38:03.645Z,12.03
2016-05-18T01:38:13.663Z,12.1
2016-05-18T01:38:23.663Z,12.12
2016-05-18T01:38:33.663Z,12.1
2016-05-18T01:38:43.679Z,12.07
2016-05-18T01:38:53.679Z,12.1
2016-05-18T01:39:03.694Z,12.05
2016-05-18T01:39:13.697Z,12.21
2016-05-18T01:39:23.697Z,12.15
2016-05-18T01:39:33.697Z,12.2
2016-05-18T01:39:43.697Z,12.18
2016-05-18T01:39:53.697Z,12.21
2016-05-18T01:40:03.713Z,12.03
2016-05-18T01:40:13.716Z,12.08
2016-05-18T01:40:23.716Z,12.07
2016-05-18T01:40:33.732Z,12.15
2016-05-18T01:40:43.732Z,12
2016-05-18T01:40:53.732Z,12.07
2016-05-18T01:41:03.747Z,12.11
2016-05-18T01:41:13.750Z,12.08
2016-05-18T01:41:23.750Z,12.02
2016-05-18T01:41:33.750Z,12.03
2016-05-18T01:41:43.750Z,12.07
2016-05-18T01:41:53.766Z,12.11
2016-05-18T01:42:03.766Z,12.08
2016-05-18T01:42:13.783Z,12.07
2016-05-18T01:42:23.783Z,12
2016-05-18T01:42:33.783Z,12.05
2016-05-18T01:42:43.783Z,12.08
2016-05-18T01:42:53.783Z,12.1
2016-05-18T01:43:03.799Z,12.02
2016-05-18T01:43:13.802Z,12.11
2016-05-18T01:43:23.802Z,12.14
2016-05-18T01:43:33.818Z,12.1
2016-05-18T01:43:43.818Z,12.1
2016-05-18T01:43:53.818Z,12.05
2016-05-18T01:44:03.818Z,12
2016-05-18T01:44:13.836Z,12.07
2016-05-18T01:44:23.836Z,12.05
2016-05-18T01:44:33.836Z,12.1
2016-05-18T01:44:43.836Z,12.07
2016-05-18T01:44:53.852Z,12.07
2016-05-18T01:45:03.852Z,12.07
2016-05-18T01:45:13.854Z,12.14
2016-05-18T01:45:23.870Z,12.14
2016-05-18T01:45:33.870Z,12.05
2016-05-18T01:45:43.870Z,12.08
2016-05-18T01:45:53.870Z,12.02
2016-05-18T01:46:03.901Z,12.08
2016-05-18T01:46:13.888Z,12.12
2016-05-18T01:46:23.888Z,12.1
2016-05-18T01:46:33.904Z,12.1
2016-05-18T01:46:43.904Z,12.05
2016-05-18T01:46:53.904Z,12.1
2016-05-18T01:47:03.904Z,12.1
2016-05-18T01:47:13.922Z,12.21
2016-05-18T01:47:23.922Z,12.17
2016-05-18T01:47:33.922Z,12.1
2016-05-18T01:47:43.938Z,12.21
2016-05-18T01:47:53.938Z,12.12
2016-05-18T01:48:03.938Z,12.05
2016-05-18T01:48:13.941Z,12.1
2016-05-18T01:48:23.957Z,12.11
2016-05-18T01:48:33.957Z,12.1
2016-05-18T01:48:43.957Z,12.17
2016-05-18T01:48:53.972Z,12.1
2016-05-18T01:49:03.972Z,12.12
2016-05-18T01:49:13.974Z,12.08
2016-05-18T01:49:23.990Z,12.11
2016-05-18T01:49:33.974Z,12.1
2016-05-18T01:49:43.990Z,12.14
2016-05-18T01:49:53.990Z,12.14
2016-05-18T01:50:03.990Z,12.08
2016-05-18T01:50:14.009Z,12.08
2016-05-18T01:50:24.009Z,12.12
2016-05-18T01:50:34.009Z,12.08
2016-05-18T01:50:44.024Z,12.03
2016-05-18T01:50:54.024Z,12.03
2016-05-18T01:51:04.024Z,12.1
2016-05-18T01:51:14.026Z,12.03
2016-05-18T01:51:24.042Z,12.15
2016-05-18T01:51:34.042Z,12.1
2016-05-18T01:51:44.042Z,12.14
2016-05-18T01:51:54.057Z,12.12
2016-05-18T01:52:04.057Z,12.07
2016-05-18T01:52:14.060Z,12.08
2016-05-18T01:52:24.060Z,12.12
2016-05-18T01:52:34.107Z,12.08
2016-05-18T01:52:44.076Z,12.08
2016-05-18T01:52:54.435Z,12.05
2016-05-18T01:53:04.092Z,12.14
2016-05-18T01:53:14.548Z,12.1
2016-05-18T01:53:24.110Z,12.18
2016-05-18T01:53:34.095Z,12.15
2016-05-18T01:53:44.095Z,12.11
2016-05-18T01:53:54.110Z,12.05
2016-05-18T01:54:04.110Z,12.14
2016-05-18T01:54:14.112Z,12.05
2016-05-18T01:54:24.128Z,12.14
2016-05-18T01:54:34.128Z,12.12
2016-05-18T01:54:44.128Z,12.14
2016-05-18T01:54:54.128Z,12.18
2016-05-18T01:55:04.144Z,12.1
2016-05-18T01:55:14.147Z,12.08
2016-05-18T01:55:24.147Z,12.11
2016-05-18T01:55:34.147Z,12.1
2016-05-18T01:55:44.162Z,12.07
2016-05-18T01:55:54.162Z,12.18
2016-05-18T01:56:04.162Z,12.1
2016-05-18T01:56:14.181Z,12.11
2016-05-18T01:56:24.196Z,12.15
2016-05-18T01:56:34.181Z,12.12
2016-05-18T01:56:44.196Z,12.1
2016-05-18T01:56:54.196Z,12.1
2016-05-18T01:57:04.196Z,12.12
2016-05-18T01:57:14.215Z,12.11
2016-05-18T01:57:24.215Z,12.2
2016-05-18T01:57:34.215Z,12.07
2016-05-18T01:57:44.215Z,12.1
2016-05-18T01:57:54.231Z,12.2
2016-05-18T01:58:04.231Z,12.08
2016-05-18T01:58:14.233Z,12.21
2016-05-18T01:58:24.233Z,12.07
2016-05-18T01:58:34.233Z,12.1
2016-05-18T01:58:44.248Z,12.1
2016-05-18T01:58:54.248Z,12.11
2016-05-18T01:59:04.248Z,12.05
2016-05-18T01:59:14.267Z,12.2
2016-05-18T01:59:24.267Z,12.11
2016-05-18T01:59:34.267Z,12.2
2016-05-18T01:59:44.267Z,12.21
2016-05-18T01:59:54.283Z,12.07
2016-05-18T02:00:04.283Z,12.15
2016-05-18T02:00:14.286Z,12.21
2016-05-18T02:00:24.301Z,12.18
2016-05-18T02:00:34.301Z,12.11
2016-05-18T02:00:44.301Z,12.15
2016-05-18T02:00:54.317Z,12.14
2016-05-18T02:01:04.317Z,12.17
2016-05-18T02:01:14.319Z,12.17
2016-05-18T02:01:24.334Z,12.15
2016-05-18T02:01:34.319Z,12.11
2016-05-18T02:01:44.334Z,12.17
2016-05-18T02:01:54.334Z,12.12
2016-05-18T02:02:04.334Z,12.15
2016-05-18T02:02:14.338Z,12.11
2016-05-18T02:02:24.354Z,12.1
2016-05-18T02:02:34.354Z,12.11
2016-05-18T02:02:44.354Z,12.15
2016-05-18T02:02:54.370Z,12.12
2016-05-18T02:03:04.370Z,12.11
2016-05-18T02:03:14.372Z,12.12
2016-05-18T02:03:24.387Z,12.17
2016-05-18T02:03:34.387Z,12.15
2016-05-18T02:03:44.387Z,12.11
2016-05-18T02:03:54.403Z,12.14
2016-05-18T02:04:04.403Z,12.1
2016-05-18T02:04:14.405Z,12.17
2016-05-18T02:04:24.405Z,12.08
2016-05-18T02:04:34.405Z,12.17
2016-05-18T02:04:44.421Z,12.18
2016-05-18T02:04:54.421Z,12.18
2016-05-18T02:05:04.421Z,12.12
2016-05-18T02:05:14.439Z,12.2
2016-05-18T02:05:24.439Z,12.18
2016-05-18T02:05:34.439Z,12.12
2016-05-18T02:05:44.439Z,12.08
2016-05-18T02:05:54.455Z,12.15
2016-05-18T02:06:04.455Z,12.15
2016-05-18T02:06:14.458Z,12.1
2016-05-18T02:06:24.473Z,12.1
2016-05-18T02:06:34.473Z,12.2
2016-05-18T02:06:44.473Z,12.14
2016-05-18T02:06:54.473Z,12.2
2016-05-18T02:07:04.489Z,12.2
2016-05-18T02:07:14.491Z,12.23
2016-05-18T02:07:24.491Z,12.2
2016-05-18T02:07:34.507Z,12.17
2016-05-18T02:07:44.585Z,12.14
2016-05-18T02:07:54.507Z,12.21
2016-05-18T02:08:04.507Z,12.11
2016-05-18T02:08:14.525Z,12.12
2016-05-18T02:08:24.541Z,12.14
2016-05-18T02:08:34.525Z,12.25
2016-05-18T02:08:44.541Z,12.14
2016-05-18T02:08:54.541Z,12.2
2016-05-18T02:09:04.541Z,12.17
2016-05-18T02:09:14.544Z,12.25
2016-05-18T02:09:24.560Z,12.25
2016-05-18T02:09:34.560Z,12.18